• Join FlightAware (Why Join?)
  • Login
  • US Flag 
06:11PM EDT


 

Airport Tracker/Info


-or-


 

Live Flight TrackerFlight Track Log ✈ AWI3551 ✈ 29-Apr-2013 ✈ KBUF - KPHL

Flight Track Log - Related Links

Times and Time Zones

All times are in EDT time to prevent confusion due to time zone crossing. See the AWI3551 flight status page for this flight to view local times or setup timezone preferences in your user account.

Time Position Orientation Groundspeed Altitude Reporting Facility
EDT Latitude Longitude Course Direction KTS MPH feet Rate Location/Type
05:28AM 42.9000 -78.7833 180° South 172 198 3,800  Level Buffalo TRACON
05:29AM 42.8192 -78.7772 177° South 243 280 5,600 1,860 Climbing Cleveland Center
05:30AM 42.6515 -78.6903 172° South  Level FlightAware Approximate
05:30AM 42.7481 -78.7594 170° South 261 300 7,900  Level Cleveland Center
05:31AM 42.5580 -78.6716 172° South  Level FlightAware Approximate
05:31AM 42.6786 -78.7250 160° South 268 308 10,300  Level Cleveland Center
05:32AM 42.4643 -78.6552 173° South  Level FlightAware Approximate
05:32AM 42.6053 -78.6961 164° South 268 308 12,600  Level Cleveland Center
05:33AM 42.3700 -78.6500 180° South  Level FlightAware Approximate
05:33AM 42.5256 -78.6617 162° South 284 327 14,100  Level Cleveland Center
05:34AM 42.4372 -78.6250 163° South 307 353 15,900 1,920 Climbing Cleveland Center
05:35AM 42.3450 -78.5858 163° South 331 381 18,000 1,800 Climbing Cleveland Center
05:36AM 42.2547 -78.5436 161° South 341 392 19,600 1,500 Climbing Cleveland Center
05:37AM 42.1581 -78.5075 165° South 348 400 21,000 1,440 Climbing Cleveland Center
05:38AM 42.0572 -78.4606 161° South 367 422 22,500 1,320 Climbing Cleveland Center
05:39AM 41.9564 -78.4219 164° South 367 422 23,700 1,200 Climbing Cleveland Center
05:40AM 41.8556 -78.3781 162° South 377 434 24,900 600 Climbing Cleveland Center
05:41AM 41.7483 -78.3344 163° South 389 448 25,000  Climbing Cleveland Center
05:42AM 41.6431 -78.2908 163° South 394 453 25,000  Level Cleveland Center
05:43AM 41.5381 -78.2472 163° South 399 459 25,000  Level Cleveland Center
05:44AM 41.4350 -78.2067 164° South 399 459 25,000  Level Cleveland Center
05:45AM 41.3342 -78.1633 162° South 399 459 25,000  Level Cleveland Center
05:46AM 41.2333 -78.1211 163° South 388 447 25,000  Level New York Center
05:47AM 41.1317 -78.0825 164° South 388 447 25,000  Level New York Center
05:48AM 41.0342 -78.0419 163° South 383 441 25,000 -180 Level New York Center
05:49AM 40.9344 -78.0011 163° South 377 434 24,700 -900 Descending New York Center
05:50AM 40.8589 -77.9053 136° Southeast 364 419 23,200 -1,500 Descending New York Center
05:51AM 40.7903 -77.7992 130° Southeast 364 419 21,700 -1,560 Descending New York Center
05:52AM 40.7214 -77.6964 131° Southeast 374 430 20,200 -1,560 Descending New York Center
05:53AM 40.6522 -77.5908 131° Southeast 379 436 18,700 -1,080 Descending New York Center
05:54AM 40.5733 -77.4764 132° Southeast 384 442 18,000 -360 Descending New York Center
05:55AM 40.5042 -77.3714 131° Southeast 376 433 18,000  Level New York Center
05:56AM 40.4331 -77.2664 132° Southeast 376 433 18,000  Level New York Center
05:57AM 40.3897 -77.1397 114° Southeast 381 438 18,000  Level New York Center
05:58AM 40.3617 -77.0036 105° East 387 445 18,000  Level New York Center
05:59AM 40.3333 -76.8647 105° East 401 461 18,000 -300 Level New York Center
06:00AM 40.3064 -76.7428 106° East 401 461 17,400 -1,020 Descending New York Center
06:01AM 40.2758 -76.6039 106° East 390 449 16,100 -1,440 Descending New York Center
06:02AM 40.2431 -76.4625 107° East 379 436 14,600 -1,380 Descending New York Center
06:03AM 40.2175 -76.3408 105° East 361 415 13,400 -1,320 Descending New York Center
06:04AM 40.1897 -76.2244 107° East 343 395 12,100 -1,260 Descending New York Center
06:05AM 40.1692 -76.1278 106° East 324 373 10,900 -1,380 Descending New York Center
06:06AM 40.1431 -76.0117 106° East 306 352 9,400 -1,380 Descending New York Center
06:07AM 40.0967 -75.9267 125° Southeast 294 338 8,200 -1,260 Descending New York Center
06:08AM 40.0431 -75.8631 138° Southeast 289 333 6,900 -1,500 Descending New York Center
06:09AM 39.9833 -75.8017 142° Southeast 270 311 5,300 -1,500 Descending New York Center
06:10AM 39.9328 -75.7656 151° Southeast 238 274 4,000 -660 Descending New York Center
06:11AM 39.8814 -75.7483 166° South 199 229 4,000  Level New York Center
06:12AM 39.8442 -75.7378 168° South 169 194 4,000  Level New York Center
06:13AM 39.8017 -75.7103 154° Southeast 159 183 4,000  Level New York Center
06:14AM 39.7894 -75.6528 105° East 154 177 4,000  Level New York Center
06:15AM 39.7964 -75.5856 82° East 171 197 4,000 60 Level New York Center
06:16AM 39.8000 -75.5667 76° East 184 212 4,100 -240 Climbing Philadelphia TRACON
06:17AM 39.8167 -75.5000 72° East 182 209 3,700 -420 Descending Philadelphia TRACON